Time;durP1;ratioP1;P1;durP2;ratioP2;P2;SDS_P1;SDS_P2;PMS_P1;PMS_P2;Temp;Humidity;BMP_temperature;BMP_pressure;BME280_temperature;BME280_humidity;BME280_pressure;Samples;Min_cycle;Max_cycle;Signal;HPM_P1;HPM_P2
2023/01/26 00:00:48;;;;;;;22.70;3.13;;;5.20;99.90;;;;;;5053705;28;20539;-60
2023/01/26 00:03:13;;;;;;;24.93;3.37;;;5.40;99.90;;;;;;5053765;28;20169;-60
2023/01/26 00:05:40;;;;;;;21.47;3.37;;;;;;;;;;5035909;28;20574;-60
2023/01/26 00:08:06;;;;;;;28.67;3.83;;;5.40;99.90;;;;;;5053343;28;20173;-60
2023/01/26 00:10:33;;;;;;;24.83;3.57;;;5.50;99.90;;;;;;5053541;28;20169;-60
2023/01/26 00:12:59;;;;;;;19.33;3.33;;;5.80;99.90;;;;;;5053426;28;20659;-60
2023/01/26 00:15:25;;;;;;;31.23;3.80;;;5.50;99.90;;;;;;5053429;28;20173;-60
2023/01/26 00:17:50;;;;;;;25.70;4.00;;;5.40;99.90;;;;;;5053351;28;20173;-59
2023/01/26 00:20:16;;;;;;;33.17;3.67;;;5.40;99.90;;;;;;5053384;28;20188;-59
2023/01/26 00:22:41;;;;;;;27.57;3.00;;;5.40;99.90;;;;;;5053350;28;20559;-59
2023/01/26 00:25:08;;;;;;;23.10;3.33;;;5.40;99.90;;;;;;5053328;28;20212;-59
2023/01/26 00:27:33;;;;;;;24.73;3.80;;;5.60;99.90;;;;;;5053294;28;20180;-59
2023/01/26 00:29:59;;;;;;;23.23;2.93;;;5.60;99.90;;;;;;5053251;28;20185;-59
2023/01/26 00:32:24;;;;;;;31.03;3.47;;;5.60;99.90;;;;;;5053050;28;20572;-58
2023/01/26 00:34:50;;;;;;;23.27;3.47;;;5.60;99.90;;;;;;5053080;28;20244;-58
2023/01/26 00:37:16;;;;;;;26.90;3.33;;;5.70;99.90;;;;;;5053008;28;20207;-60
2023/01/26 00:39:41;;;;;;;28.57;4.00;;;5.70;99.90;;;;;;5052960;28;20201;-58
2023/01/26 00:42:10;;;;;;;23.23;3.87;;;5.50;99.90;;;;;;5052599;28;20588;-58
2023/01/26 00:44:37;;;;;;;21.33;2.77;;;5.80;99.90;;;;;;5035005;28;20551;-58
2023/01/26 00:47:04;;;;;;;26.77;3.33;;;5.60;99.90;;;;;;5044962;28;20208;-58
2023/01/26 00:49:30;;;;;;;20.03;3.43;;;;;;;;;;5052449;28;20259;-58
2023/01/26 00:51:56;;;;;;;26.60;3.63;;;5.40;99.90;;;;;;5034413;28;20231;-58
2023/01/26 00:54:21;;;;;;;21.60;2.87;;;5.50;99.90;;;;;;5052574;28;20575;-58
2023/01/26 00:56:47;;;;;;;24.50;3.60;;;5.40;99.90;;;;;;5033382;28;20659;-58
2023/01/26 00:59:13;;;;;;;21.73;3.20;;;5.40;99.90;;;;;;5052515;28;20632;-57
2023/01/26 01:01:38;;;;;;;20.57;3.07;;;5.40;99.90;;;;;;5052056;28;20264;-57
2023/01/26 01:04:04;;;;;;;29.57;3.53;;;5.00;99.90;;;;;;5052142;28;20655;-57
2023/01/26 01:06:30;;;;;;;19.47;2.83;;;;;;;;;;5052269;28;20200;-58
2023/01/26 01:08:56;;;;;;;27.27;3.53;;;5.30;99.90;;;;;;5052334;28;20188;-57
2023/01/26 01:11:21;;;;;;;28.73;3.30;;;5.40;99.90;;;;;;5034175;28;20177;-58
2023/01/26 01:13:47;;;;;;;19.03;3.20;;;5.30;99.90;;;;;;5051528;28;20678;-60
2023/01/26 01:16:14;;;;;;;23.90;2.73;;;5.30;99.90;;;;;;5051995;28;20734;-58
2023/01/26 01:18:40;;;;;;;21.40;3.03;;;5.40;99.90;;;;;;5052008;28;20260;-58
2023/01/26 01:21:11;;;;;;;27.83;3.23;;;5.20;99.90;;;;;;5052732;28;20177;-58
2023/01/26 01:23:36;;;;;;;23.30;3.10;;;5.10;99.90;;;;;;5052094;28;20177;-58
2023/01/26 01:26:03;;;;;;;20.27;3.33;;;5.20;99.90;;;;;;5052090;28;20515;-58
2023/01/26 01:28:30;;;;;;;30.27;3.13;;;6.70;99.90;;;;;;5052019;28;20184;-58
2023/01/26 01:30:57;;;;;;;35.13;3.30;;;;;;;;;;5052047;28;20173;-58
2023/01/26 01:33:23;;;;;;;27.10;3.40;;;5.10;99.90;;;;;;5051801;28;20243;-58
2023/01/26 01:35:59;;;;;;;26.17;3.40;;;4.90;99.90;;;;;;5051813;28;20238;-58
2023/01/26 01:38:26;;;;;;;20.03;2.87;;;5.80;99.90;;;;;;5052028;28;20169;-58
2023/01/26 01:40:53;;;;;;;26.07;3.37;;;5.00;99.90;;;;;;5051938;28;20177;-58
2023/01/26 01:43:20;;;;;;;25.70;3.23;;;4.90;99.90;;;;;;5051062;28;20636;-58
2023/01/26 01:45:47;;;;;;;28.00;3.30;;;5.00;99.90;;;;;;5048303;28;20173;-58
2023/01/26 01:48:23;;;;;;;15.27;2.63;;;4.90;99.90;;;;;;5049649;28;20263;-58
2023/01/26 01:50:56;;;;;;;22.83;3.20;;;4.80;99.90;;;;;;5050690;28;20681;-58
2023/01/26 01:53:28;;;;;;;32.30;3.87;;;4.90;99.90;;;;;;5032816;28;20220;-58
2023/01/26 01:55:57;;;;;;;26.30;4.00;;;4.90;99.90;;;;;;5050912;28;20616;-58
2023/01/26 01:58:24;;;;;;;25.53;2.80;;;4.90;99.90;;;;;;5051012;28;20233;-58
2023/01/26 02:00:50;;;;;;;29.43;3.33;;;4.60;99.90;;;;;;5051369;28;20243;-58
2023/01/26 02:03:20;;;;;;;23.20;3.07;;;4.70;99.90;;;;;;5051032;28;20663;-58
2023/01/26 02:05:54;;;;;;;20.20;3.63;;;4.80;99.90;;;;;;5051118;28;20178;-58
2023/01/26 02:08:24;;;;;;;20.60;3.10;;;4.70;99.90;;;;;;5050927;28;20205;-58
2023/01/26 02:10:54;;;;;;;27.30;3.50;;;4.70;99.90;;;;;;5051197;28;20177;-59
2023/01/26 02:13:21;;;;;;;31.50;3.00;;;4.60;99.90;;;;;;5050066;28;20205;-58
2023/01/26 02:15:47;;;;;;;25.90;3.50;;;4.60;99.90;;;;;;5050989;28;20367;-58
2023/01/26 02:18:15;;;;;;;22.97;2.80;;;4.70;99.90;;;;;;5050731;28;20181;-56
2023/01/26 02:20:57;;;;;;;31.13;3.13;;;4.60;99.90;;;;;;5051123;28;20250;-56
2023/01/26 02:23:31;;;;;;;23.43;3.80;;;4.20;99.90;;;;;;5051001;28;20185;-56
2023/01/26 02:26:18;;;;;;;28.60;3.80;;;4.50;99.90;;;;;;5051055;28;20283;-56
2023/01/26 02:28:45;;;;;;;29.53;3.00;;;4.40;99.90;;;;;;5051009;28;20200;-56
2023/01/26 02:31:12;;;;;;;43.57;3.80;;;4.50;99.90;;;;;;5051067;28;20181;-57
2023/01/26 02:33:39;;;;;;;20.47;3.63;;;4.10;99.90;;;;;;5050703;28;20659;-57
2023/01/26 02:36:06;;;;;;;24.47;3.23;;;4.50;99.90;;;;;;5050759;28;20542;-57
2023/01/26 02:38:45;;;;;;;23.50;3.57;;;4.50;99.90;;;;;;5050734;28;20197;-56
2023/01/26 02:42:37;;;;;;;27.33;3.37;;;4.40;99.90;;;;;;5050982;28;20188;-57
2023/01/26 02:44:04;;;;;;;33.30;3.40;;;4.30;99.90;;;;;;5050692;28;20312;-57
2023/01/26 02:46:29;;;;;;;25.73;3.67;;;4.20;99.90;;;;;;5049756;28;20643;-57
2023/01/26 02:51:39;;;;;;;25.90;3.63;;;4.00;99.90;;;;;;5044464;28;20289;-57
2023/01/26 02:54:05;;;;;;;32.10;3.90;;;3.90;99.90;;;;;;5050389;28;20308;-57
2023/01/26 02:56:30;;;;;;;29.43;3.23;;;3.80;99.90;;;;;;5050154;28;20223;-57
2023/01/26 02:58:56;;;;;;;29.30;3.33;;;4.00;99.90;;;;;;5050132;28;20196;-57
2023/01/26 03:01:22;;;;;;;27.20;2.80;;;;;;;;;;5049241;28;20177;-57
2023/01/26 03:03:48;;;;;;;21.70;2.70;;;4.10;99.90;;;;;;5050184;28;20177;-57
2023/01/26 03:06:14;;;;;;;28.70;3.23;;;;;;;;;;5050245;28;20177;-57
2023/01/26 03:08:40;;;;;;;25.90;3.10;;;4.00;99.90;;;;;;5050253;28;20245;-57
2023/01/26 03:11:07;;;;;;;37.57;4.07;;;4.00;99.90;;;;;;5049946;28;20667;-57
2023/01/26 03:13:33;;;;;;;25.77;3.30;;;5.10;99.90;;;;;;5049664;28;20255;-57
2023/01/26 03:16:05;;;;;;;31.40;2.97;;;4.40;99.90;;;;;;5050228;28;20669;-58
2023/01/26 03:29:31;;;;;;;27.63;3.67;;;3.60;99.90;;;;;;5054457;28;20219;-57
2023/01/26 03:32:00;;;;;;;25.33;3.43;;;3.60;99.90;;;;;;5054096;28;20221;-57
2023/01/26 03:34:26;;;;;;;24.53;3.00;;;4.10;99.90;;;;;;5054007;28;20664;-55
2023/01/26 03:36:51;;;;;;;20.20;3.77;;;4.10;99.90;;;;;;5054228;28;20307;-58
2023/01/26 03:58:29;;;;;;;16.27;3.13;;;4.00;99.90;;;;;;5052291;28;20312;-57
2023/01/26 04:00:58;;;;;;;28.67;3.80;;;4.00;99.90;;;;;;5034357;28;20264;-57
2023/01/26 04:08:53;;;;;;;20.07;3.50;;;;;;;;;;5052931;28;20331;-57
2023/01/26 04:11:18;;;;;;;37.17;4.47;;;3.90;99.90;;;;;;5053069;28;20260;-57
2023/01/26 04:21:59;;;;;;;26.03;4.27;;;3.80;99.90;;;;;;5053254;28;20203;-57
2023/01/26 04:24:25;;;;;;;26.37;4.00;;;3.60;99.90;;;;;;5052964;28;20181;-57
2023/01/26 04:26:51;;;;;;;33.37;4.17;;;;;;;;;;5035117;28;20697;-57
2023/01/26 04:29:17;;;;;;;27.50;4.17;;;;;;;;;;5052962;28;20181;-57
2023/01/26 04:31:43;;;;;;;27.97;4.20;;;3.70;99.90;;;;;;5053019;28;20660;-58
2023/01/26 04:34:14;;;;;;;30.37;3.80;;;4.00;99.90;;;;;;5052549;28;20256;-58
2023/01/26 04:36:40;;;;;;;24.97;4.37;;;3.70;99.90;;;;;;5051816;28;20173;-58
2023/01/26 04:39:07;;;;;;;34.60;4.33;;;;;;;;;;5052770;28;20181;-58
2023/01/26 04:41:33;;;;;;;32.90;4.50;;;3.40;99.90;;;;;;5052787;28;20264;-58
2023/01/26 04:43:59;;;;;;;26.03;4.47;;;3.30;99.90;;;;;;5052024;28;20273;-58
2023/01/26 04:46:24;;;;;;;26.20;4.07;;;3.60;99.90;;;;;;5052701;28;20173;-58
2023/01/26 04:48:50;;;;;;;30.27;4.77;;;3.60;99.90;;;;;;5052712;28;20234;-58
2023/01/26 04:51:20;;;;;;;29.10;4.70;;;3.70;99.90;;;;;;5052696;28;20234;-58
2023/01/26 04:53:47;;;;;;;31.03;4.20;;;3.30;99.90;;;;;;5052304;28;20706;-58
2023/01/26 04:56:21;;;;;;;21.47;3.93;;;3.30;99.90;;;;;;5052652;28;20674;-58
2023/01/26 04:58:47;;;;;;;34.67;5.00;;;3.30;99.90;;;;;;5034718;28;20231;-57
2023/01/26 05:01:13;;;;;;;23.00;4.43;;;3.40;99.90;;;;;;5034695;28;20214;-57
2023/01/26 05:03:39;;;;;;;30.40;4.73;;;3.60;99.90;;;;;;5051264;28;20188;-57
2023/01/26 05:06:04;;;;;;;27.97;4.73;;;3.50;99.90;;;;;;5050691;28;20634;-58
2023/01/26 05:08:30;;;;;;;25.90;4.60;;;3.40;99.90;;;;;;5033791;28;20185;-58
2023/01/26 05:10:56;;;;;;;24.97;3.97;;;3.50;99.90;;;;;;5050409;28;20238;-58
2023/01/26 05:13:21;;;;;;;27.20;4.00;;;3.60;99.90;;;;;;5050839;28;20213;-58
2023/01/26 05:15:47;;;;;;;33.33;4.70;;;3.40;99.90;;;;;;5050700;28;20177;-58
2023/01/26 05:18:13;;;;;;;35.30;4.97;;;3.60;99.90;;;;;;5052052;28;20656;-58
2023/01/26 05:20:39;;;;;;;32.40;5.60;;;3.80;99.90;;;;;;5047395;28;20181;-59
2023/01/26 05:23:04;;;;;;;35.67;4.40;;;3.60;99.90;;;;;;5048443;28;20176;-58
2023/01/26 05:25:30;;;;;;;33.33;4.43;;;3.90;99.90;;;;;;5052206;28;20207;-58
2023/01/26 05:27:57;;;;;;;32.30;4.93;;;3.50;99.90;;;;;;5051902;28;20197;-58
2023/01/26 05:30:22;;;;;;;30.30;5.80;;;3.60;99.90;;;;;;5052119;28;20223;-58
2023/01/26 05:32:48;;;;;;;34.03;4.80;;;3.40;99.90;;;;;;5051871;28;20282;-58
2023/01/26 05:35:14;;;;;;;34.37;5.93;;;4.00;99.90;;;;;;5051913;28;20722;-57
2023/01/26 05:37:44;;;;;;;49.80;6.83;;;3.40;99.90;;;;;;5051970;28;20162;-58
2023/01/26 05:40:11;;;;;;;31.73;5.63;;;3.60;99.90;;;;;;5051450;28;20208;-58
2023/01/26 05:42:37;;;;;;;24.83;5.40;;;3.70;99.90;;;;;;5048822;28;20651;-56
2023/01/26 05:45:04;;;;;;;24.97;5.73;;;3.60;99.90;;;;;;5051409;28;20261;-57
2023/01/26 05:47:29;;;;;;;23.90;5.40;;;3.70;99.90;;;;;;5051344;28;20184;-57
2023/01/26 05:49:55;;;;;;;29.70;5.87;;;3.60;99.90;;;;;;5051343;28;20184;-57
2023/01/26 05:52:21;;;;;;;34.80;6.83;;;3.70;99.90;;;;;;5051292;28;20671;-57
2023/01/26 05:54:47;;;;;;;34.57;6.60;;;3.60;99.90;;;;;;5050884;28;20266;-57
2023/01/26 05:57:15;;;;;;;22.80;6.20;;;3.60;99.90;;;;;;5051456;28;20169;-58
2023/01/26 05:59:41;;;;;;;27.53;6.10;;;3.60;99.90;;;;;;5051374;28;20636;-58
2023/01/26 06:02:08;;;;;;;23.37;6.53;;;3.60;99.90;;;;;;5050938;28;20181;-57
2023/01/26 06:04:33;;;;;;;34.00;6.53;;;3.50;99.90;;;;;;5051230;28;20375;-57
2023/01/26 06:06:59;;;;;;;30.03;7.07;;;3.70;99.90;;;;;;5051075;28;20633;-57
2023/01/26 06:09:25;;;;;;;25.20;6.50;;;3.50;99.90;;;;;;5051067;28;20635;-57
2023/01/26 06:11:51;;;;;;;33.03;7.00;;;3.50;99.90;;;;;;5050576;28;20184;-58
2023/01/26 06:14:17;;;;;;;34.77;6.93;;;;;;;;;;5050896;28;20220;-57
2023/01/26 06:16:42;;;;;;;33.03;7.17;;;2.90;99.90;;;;;;5050191;28;20173;-56
2023/01/26 06:19:09;;;;;;;38.10;6.70;;;3.60;99.90;;;;;;5048918;28;20180;-56
2023/01/26 06:21:36;;;;;;;37.17;7.93;;;3.60;99.90;;;;;;5049058;28;20173;-56
2023/01/26 06:24:02;;;;;;;35.63;8.00;;;3.90;99.90;;;;;;5047023;28;20699;-57
2023/01/26 06:26:27;;;;;;;29.37;7.53;;;3.70;99.90;;;;;;5050749;28;20189;-58
2023/01/26 06:28:54;;;;;;;29.37;7.90;;;3.60;99.90;;;;;;5050702;28;20185;-57
2023/01/26 06:31:22;;;;;;;27.40;6.80;;;3.50;99.90;;;;;;5050807;28;20640;-57
2023/01/26 06:33:48;;;;;;;32.07;7.70;;;3.50;99.90;;;;;;5049914;28;20316;-57
2023/01/26 06:36:14;;;;;;;30.30;8.03;;;3.50;99.90;;;;;;5050860;28;20165;-57
2023/01/26 06:38:51;;;;;;;32.43;8.07;;;3.60;99.90;;;;;;5050688;28;20188;-57
2023/01/26 06:41:17;;;;;;;38.90;8.90;;;3.50;99.90;;;;;;5050479;28;20264;-57
2023/01/26 06:43:47;;;;;;;37.67;8.27;;;3.50;99.90;;;;;;5048933;28;20173;-57
2023/01/26 06:46:14;;;;;;;31.33;8.47;;;3.80;99.90;;;;;;5049099;28;20726;-57
2023/01/26 06:48:40;;;;;;;30.27;8.60;;;3.20;99.90;;;;;;5050227;28;20181;-57
2023/01/26 06:51:15;;;;;;;32.47;8.20;;;3.40;99.90;;;;;;5050901;28;20177;-57
2023/01/26 06:53:52;;;;;;;31.27;8.30;;;3.50;99.90;;;;;;5050114;28;20218;-58
2023/01/26 06:56:17;;;;;;;31.73;8.20;;;4.20;99.90;;;;;;5050448;28;20204;-57
2023/01/26 06:58:43;;;;;;;28.87;8.90;;;3.50;99.90;;;;;;5050507;28;20212;-57
2023/01/26 07:01:31;;;;;;;31.97;8.47;;;3.50;99.90;;;;;;5056507;28;20259;-57
2023/01/26 07:03:57;;;;;;;26.70;8.90;;;3.30;99.90;;;;;;5057215;28;20205;-57
2023/01/26 07:06:22;;;;;;;32.37;9.87;;;3.60;99.90;;;;;;5056748;28;20571;-57
2023/01/26 07:08:48;;;;;;;27.83;9.10;;;3.60;99.90;;;;;;5056865;28;20194;-57
2023/01/26 07:11:15;;;;;;;45.23;10.13;;;3.40;99.90;;;;;;5056136;28;20181;-56
2023/01/26 07:13:40;;;;;;;26.83;9.57;;;3.70;99.90;;;;;;5051485;28;20315;-56
2023/01/26 07:16:09;;;;;;;32.67;10.37;;;3.60;99.90;;;;;;5056010;28;20602;-58
2023/01/26 07:18:36;;;;;;;34.80;9.70;;;3.40;99.90;;;;;;5057189;28;20173;-56
2023/01/26 07:21:03;;;;;;;39.63;10.10;;;3.40;99.90;;;;;;5057050;28;20237;-56
2023/01/26 07:23:29;;;;;;;36.27;10.70;;;3.60;99.90;;;;;;5055122;28;20272;-56
2023/01/26 07:25:55;;;;;;;27.97;10.70;;;3.60;99.90;;;;;;5056806;28;20702;-56
2023/01/26 07:28:20;;;;;;;31.63;9.73;;;3.80;99.90;;;;;;5050054;28;20203;-56
2023/01/26 07:30:47;;;;;;;33.20;9.77;;;3.70;99.90;;;;;;5037153;28;20174;-56
2023/01/26 07:33:13;;;;;;;43.17;12.53;;;3.60;99.90;;;;;;5036804;28;20383;-56
2023/01/26 07:35:39;;;;;;;39.07;12.57;;;4.00;99.90;;;;;;5037166;28;20886;-57
2023/01/26 07:38:05;;;;;;;36.47;10.37;;;3.80;99.90;;;;;;5036898;28;20174;-57
2023/01/26 07:40:31;;;;;;;31.13;9.77;;;3.90;99.90;;;;;;5043724;28;20334;-56
2023/01/26 07:42:58;;;;;;;37.87;10.67;;;3.80;99.90;;;;;;5055925;28;20723;-56
2023/01/26 07:45:24;;;;;;;37.70;9.87;;;3.80;99.90;;;;;;5056192;28;20204;-56
2023/01/26 07:47:50;;;;;;;28.80;10.50;;;3.80;99.90;;;;;;5052363;28;20593;-56
2023/01/26 07:50:17;;;;;;;32.60;10.30;;;3.60;99.90;;;;;;5047618;28;20652;-56
2023/01/26 07:52:43;;;;;;;36.93;9.50;;;3.90;99.90;;;;;;5056547;28;20169;-56
2023/01/26 07:55:09;;;;;;;37.27;11.50;;;3.90;99.90;;;;;;5056282;28;20221;-56
2023/01/26 07:57:34;;;;;;;148.77;16.57;;;4.10;99.90;;;;;;5056913;28;20536;-56
2023/01/26 08:00:00;;;;;;;29.00;10.43;;;4.00;99.90;;;;;;5056759;28;20635;-56
2023/01/26 08:02:26;;;;;;;90.30;13.67;;;4.00;99.90;;;;;;5038784;28;20197;-56
2023/01/26 08:04:51;;;;;;;35.20;10.93;;;3.90;99.90;;;;;;5056541;28;20650;-55
2023/01/26 08:07:17;;;;;;;31.87;10.23;;;4.20;99.90;;;;;;5053298;28;20283;-55
2023/01/26 08:09:43;;;;;;;37.33;11.23;;;4.00;99.90;;;;;;5052273;28;20250;-55
2023/01/26 08:12:08;;;;;;;28.70;10.40;;;4.00;99.90;;;;;;5052647;28;20187;-55
2023/01/26 08:14:34;;;;;;;39.43;11.47;;;4.00;99.90;;;;;;5052092;28;20224;-55
2023/01/26 08:17:00;;;;;;;38.17;10.60;;;4.10;99.90;;;;;;5053163;28;20174;-54
2023/01/26 08:19:26;;;;;;;27.83;10.13;;;4.20;99.90;;;;;;5052976;28;20187;-55
2023/01/26 08:21:53;;;;;;;28.20;10.30;;;4.70;99.90;;;;;;5052448;28;20924;-56
2023/01/26 08:24:19;;;;;;;29.93;9.53;;;4.40;99.90;;;;;;5053116;28;20193;-61
2023/01/26 08:26:44;;;;;;;32.23;9.77;;;4.40;99.90;;;;;;5053065;28;20258;-55
2023/01/26 08:29:10;;;;;;;25.47;9.80;;;4.60;99.90;;;;;;5052832;28;20264;-55
2023/01/26 08:31:36;;;;;;;27.13;9.20;;;4.60;99.90;;;;;;5052697;28;20659;-57
2023/01/26 08:34:03;;;;;;;36.93;9.57;;;4.60;99.90;;;;;;5053149;28;20227;-58
2023/01/26 08:36:28;;;;;;;22.60;9.07;;;4.60;99.90;;;;;;5052388;28;20173;-55
2023/01/26 08:38:54;;;;;;;29.23;9.23;;;4.70;99.90;;;;;;5052294;28;20195;-59
2023/01/26 08:41:20;;;;;;;28.23;9.23;;;4.60;99.90;;;;;;5052731;28;20188;-58
2023/01/26 08:43:46;;;;;;;23.27;8.80;;;4.50;99.90;;;;;;5052807;28;20177;-56
2023/01/26 08:46:12;;;;;;;26.50;8.93;;;4.40;99.90;;;;;;5052742;28;20238;-55
2023/01/26 08:48:38;;;;;;;26.87;9.60;;;;;;;;;;5052298;28;20184;-57
2023/01/26 08:51:06;;;;;;;30.97;8.37;;;4.50;99.90;;;;;;5052718;28;20173;-58
2023/01/26 08:53:33;;;;;;;24.43;8.40;;;4.80;99.90;;;;;;5052758;28;20254;-54
2023/01/26 08:56:06;;;;;;;29.47;9.00;;;4.60;99.90;;;;;;5052244;28;20181;-57
2023/01/26 08:58:32;;;;;;;32.17;8.63;;;4.70;99.90;;;;;;5051821;28;20659;-56
2023/01/26 09:00:58;;;;;;;32.30;9.07;;;4.80;99.90;;;;;;5052053;28;20181;-57
2023/01/26 09:03:24;;;;;;;23.40;8.23;;;5.00;99.90;;;;;;5052432;28;20309;-57
2023/01/26 09:05:50;;;;;;;25.73;8.03;;;4.80;99.90;;;;;;5052603;28;20242;-56
2023/01/26 09:08:15;;;;;;;22.53;7.30;;;4.80;99.90;;;;;;5051119;28;20250;-56
2023/01/26 09:10:43;;;;;;;26.20;8.17;;;4.90;99.90;;;;;;5050403;28;20596;-56
2023/01/26 09:13:09;;;;;;;26.03;8.23;;;4.90;99.90;;;;;;5050190;28;20208;-56
2023/01/26 09:15:37;;;;;;;19.33;7.50;;;5.00;99.90;;;;;;5050645;28;20691;-56
2023/01/26 09:18:03;;;;;;;24.67;8.00;;;4.90;99.90;;;;;;5049902;28;20250;-56
2023/01/26 09:20:28;;;;;;;23.97;8.03;;;4.80;99.90;;;;;;5050691;28;20237;-56
2023/01/26 09:22:54;;;;;;;26.90;8.23;;;5.00;99.90;;;;;;5050878;28;20162;-56
2023/01/26 09:25:19;;;;;;;18.43;7.73;;;5.10;99.90;;;;;;5052107;28;20188;-56
2023/01/26 09:27:45;;;;;;;25.37;7.40;;;5.10;99.90;;;;;;5050592;28;20184;-57
2023/01/26 09:30:11;;;;;;;20.00;8.53;;;5.60;99.90;;;;;;5047048;28;20643;-56
2023/01/26 09:32:37;;;;;;;20.03;7.00;;;5.50;99.90;;;;;;5033168;28;20216;-58
2023/01/26 09:35:03;;;;;;;17.17;7.13;;;6.20;99.90;;;;;;5052101;28;20693;-56
2023/01/26 09:37:28;;;;;;;28.40;6.83;;;6.20;99.90;;;;;;5051516;28;20724;-56
2023/01/26 09:39:54;;;;;;;22.03;7.03;;;6.10;99.90;;;;;;5051775;28;20188;-56
2023/01/26 09:42:44;;;;;;;22.10;6.73;;;6.10;99.90;;;;;;5051764;28;20628;-56
2023/01/26 09:45:12;;;;;;;19.83;6.93;;;6.10;99.90;;;;;;5051573;28;20191;-57
2023/01/26 09:48:05;;;;;;;19.70;6.83;;;6.30;99.90;;;;;;5051493;28;20219;-56
2023/01/26 09:51:00;;;;;;;25.03;6.77;;;6.10;99.90;;;;;;5051353;28;20173;-57
2023/01/26 09:53:46;;;;;;;25.30;6.70;;;6.50;99.90;;;;;;5051258;28;20201;-56
2023/01/26 09:56:17;;;;;;;22.83;5.57;;;7.90;99.90;;;;;;5051554;28;20181;-57
2023/01/26 09:58:56;;;;;;;14.23;5.87;;;8.20;99.90;;;;;;5051769;28;20287;-57
2023/01/26 10:01:41;;;;;;;15.27;5.20;;;8.20;99.90;;;;;;5033259;28;20192;-58
2023/01/26 10:04:28;;;;;;;14.43;5.10;;;8.60;99.90;;;;;;5050850;28;20181;-62
2023/01/26 10:06:56;;;;;;;19.80;5.17;;;8.60;99.90;;;;;;5039037;28;20656;-59
2023/01/26 10:09:25;;;;;;;15.40;5.40;;;8.30;99.90;;;;;;5050954;28;20184;-59
2023/01/26 10:11:59;;;;;;;18.40;5.10;;;8.20;99.90;;;;;;5049736;28;20184;-60
2023/01/26 10:14:29;;;;;;;15.17;5.30;;;8.10;99.90;;;;;;5050799;28;20237;-56
2023/01/26 10:16:56;;;;;;;17.27;5.50;;;7.90;99.90;;;;;;5051096;28;20173;-56
2023/01/26 10:19:32;;;;;;;21.23;5.07;;;7.70;99.90;;;;;;5050928;28;20192;-56
2023/01/26 10:22:01;;;;;;;16.53;4.90;;;7.50;99.90;;;;;;5050422;28;20180;-55
2023/01/26 10:24:27;;;;;;;17.47;4.90;;;7.30;99.90;;;;;;5050777;28;20374;-56
2023/01/26 10:26:56;;;;;;;13.57;4.90;;;6.90;99.90;;;;;;5050903;28;20173;-56
2023/01/26 10:29:22;;;;;;;14.93;4.80;;;7.00;99.90;;;;;;5051068;28;20181;-56
2023/01/26 10:31:48;;;;;;;13.43;5.27;;;6.80;99.90;;;;;;5016499;28;20224;-56
2023/01/26 10:34:16;;;;;;;20.37;5.50;;;7.00;99.90;;;;;;5050293;28;20300;-56
2023/01/26 10:36:44;;;;;;;19.50;5.83;;;6.90;99.90;;;;;;5050870;28;20180;-56
2023/01/26 10:39:13;;;;;;;15.27;4.93;;;7.00;99.90;;;;;;5050297;28;20169;-56
2023/01/26 10:41:38;;;;;;;21.67;5.93;;;7.40;99.90;;;;;;5049737;28;20214;-56
2023/01/26 10:44:31;;;;;;;13.73;5.67;;;7.20;99.90;;;;;;5050787;28;20738;-56
2023/01/26 10:47:14;;;;;;;16.73;5.33;;;7.60;99.90;;;;;;5050353;28;20185;-56
2023/01/26 10:49:40;;;;;;;18.13;5.73;;;7.80;99.90;;;;;;5050673;28;20173;-56
2023/01/26 10:52:06;;;;;;;17.80;5.60;;;7.70;99.90;;;;;;5049915;28;20600;-56
2023/01/26 10:54:35;;;;;;;14.07;5.67;;;7.70;99.90;;;;;;5049956;28;20217;-56
2023/01/26 10:57:29;;;;;;;17.83;5.07;;;7.60;99.90;;;;;;5050218;28;20656;-56
2023/01/26 10:59:59;;;;;;;15.33;4.80;;;7.80;99.90;;;;;;5030683;28;20174;-56
2023/01/26 11:02:30;;;;;;;17.50;4.27;;;8.10;99.90;;;;;;5012845;28;20193;-56
2023/01/26 11:05:02;;;;;;;15.40;4.80;;;8.60;99.90;;;;;;5030691;28;20173;-56
2023/01/26 11:07:35;;;;;;;15.40;4.63;;;9.40;99.90;;;;;;5048204;28;20173;-56
2023/01/26 11:10:19;;;;;;;13.30;4.07;;;9.30;99.90;;;;;;5050023;28;20177;-56
2023/01/26 11:12:45;;;;;;;12.33;4.00;;;9.20;99.90;;;;;;5050503;28;20169;-56
2023/01/26 11:15:17;;;;;;;14.33;4.07;;;9.20;99.90;;;;;;5050524;28;20257;-56
2023/01/26 11:17:59;;;;;;;14.43;4.27;;;8.80;99.90;;;;;;5050283;28;20173;-56
2023/01/26 11:20:55;;;;;;;16.43;4.50;;;8.70;99.90;;;;;;5050538;28;20276;-56
2023/01/26 11:23:46;;;;;;;11.57;4.43;;;11.20;99.90;;;;;;5050484;28;20165;-56
2023/01/26 11:26:21;;;;;;;10.50;3.77;;;9.20;99.90;;;;;;5050109;28;20180;-56
2023/01/26 11:29:05;;;;;;;10.93;3.87;;;9.10;99.90;;;;;;5038087;28;20181;-56
2023/01/26 11:31:36;;;;;;;16.10;3.83;;;9.70;99.90;;;;;;5049960;28;20608;-57
2023/01/26 11:34:38;;;;;;;11.13;3.60;;;9.80;99.90;;;;;;5047898;28;20209;-56
2023/01/26 11:37:32;;;;;;;10.80;3.67;;;10.30;99.90;;;;;;5049662;28;20183;-56
2023/01/26 11:40:28;;;;;;;17.03;4.10;;;9.80;99.90;;;;;;5043004;28;20192;-56
2023/01/26 11:43:13;;;;;;;12.13;4.03;;;9.00;99.90;;;;;;5050137;28;20181;-56
2023/01/26 11:45:47;;;;;;;9.43;3.50;;;9.00;99.90;;;;;;5050923;28;20188;-56
2023/01/26 11:48:51;;;;;;;9.07;3.83;;;8.90;99.90;;;;;;5053691;28;20643;-56
2023/01/26 11:51:24;;;;;;;12.90;4.00;;;8.90;99.90;;;;;;5037257;28;20188;-56
2023/01/26 11:54:09;;;;;;;12.80;3.87;;;9.00;99.90;;;;;;5053568;28;20205;-56
2023/01/26 11:56:49;;;;;;;12.80;3.77;;;9.00;99.90;;;;;;5035778;28;20203;-56
2023/01/26 11:59:27;;;;;;;12.63;4.30;;;8.90;99.90;;;;;;5053789;28;20177;-56
2023/01/26 12:02:02;;;;;;;13.67;4.13;;;8.90;99.90;;;;;;5053725;28;20173;-57
2023/01/26 12:04:35;;;;;;;11.63;2.90;;;9.30;99.90;;;;;;5053066;28;20189;-56
2023/01/26 12:07:10;;;;;;;11.83;3.60;;;9.40;99.90;;;;;;5048060;28;20260;-57
2023/01/26 12:09:45;;;;;;;16.73;4.80;;;9.20;99.90;;;;;;5041356;28;20181;-57
2023/01/26 12:12:16;;;;;;;14.97;4.63;;;9.20;99.90;;;;;;5053649;28;20215;-57
2023/01/26 12:15:03;;;;;;;11.53;3.53;;;9.10;99.90;;;;;;5053440;28;20212;-57
2023/01/26 12:18:14;;;;;;;12.43;3.20;;;8.80;99.90;;;;;;5053523;28;20212;-56
2023/01/26 12:20:49;;;;;;;12.53;3.97;;;9.10;99.90;;;;;;5053419;28;20165;-57
2023/01/26 12:23:26;;;;;;;8.27;3.23;;;9.40;99.90;;;;;;5053045;28;20643;-56
2023/01/26 12:25:57;;;;;;;18.60;6.00;;;9.80;99.90;;;;;;5053206;28;20256;-57
2023/01/26 12:28:39;;;;;;;19.27;6.47;;;9.60;99.90;;;;;;5053220;28;20280;-57
2023/01/26 12:31:40;;;;;;;19.00;4.80;;;9.80;99.90;;;;;;5053412;28;20173;-56
2023/01/26 12:34:11;;;;;;;15.07;4.03;;;9.70;99.90;;;;;;5052732;28;20695;-56
2023/01/26 12:36:56;;;;;;;11.53;3.53;;;9.80;99.90;;;;;;5053146;28;20238;-56
2023/01/26 12:39:35;;;;;;;11.13;3.83;;;10.30;99.90;;;;;;5053083;28;20252;-56
2023/01/26 12:42:37;;;;;;;10.80;3.80;;;10.60;99.90;;;;;;5052442;28;20177;-56
2023/01/26 12:45:11;;;;;;;11.40;3.77;;;10.80;99.90;;;;;;5052745;28;20181;-56
2023/01/26 12:47:42;;;;;;;12.77;5.20;;;10.80;99.90;;;;;;5052787;28;20169;-56
2023/01/26 12:50:29;;;;;;;19.00;7.27;;;11.50;99.90;;;;;;5052484;28;20192;-56
2023/01/26 12:53:00;;;;;;;19.30;7.00;;;11.10;99.90;;;;;;5052780;28;20650;-56
2023/01/26 12:55:37;;;;;;;44.50;23.57;;;10.80;99.90;;;;;;5052303;28;20209;-56
2023/01/26 12:58:14;;;;;;;29.70;13.73;;;11.20;99.90;;;;;;5051816;28;20632;-56
2023/01/26 13:00:51;;;;;;;24.33;10.03;;;11.70;99.90;;;;;;5052522;28;20188;-56
2023/01/26 13:03:24;;;;;;;20.58;8.10;;;13.10;99.90;;;;;;5052595;28;20227;-56
2023/01/26 13:06:15;;;;;;;12.20;4.00;;;13.70;99.90;;;;;;5052141;28;20196;-56
2023/01/26 13:08:56;;;;;;;13.13;2.95;;;16.60;99.90;;;;;;5048570;28;20320;-56
2023/01/26 13:11:46;;;;;;;12.65;3.13;;;16.40;99.90;;;;;;5032590;28;20648;-56
2023/01/26 13:14:30;;;;;;;15.18;5.75;;;15.10;99.90;;;;;;5032486;28;20205;-59
2023/01/26 13:17:17;;;;;;;15.05;5.45;;;13.60;99.90;;;;;;5032510;28;20198;-56
2023/01/26 13:19:43;;;;;;;16.30;4.18;;;12.70;99.90;;;;;;5038553;28;20224;-56
2023/01/26 13:22:39;;;;;;;11.48;3.25;;;12.50;99.90;;;;;;5052407;28;20201;-56
2023/01/26 13:25:13;;;;;;;13.05;3.35;;;15.90;99.90;;;;;;5043638;28;20264;-56
2023/01/26 13:27:38;;;;;;;8.25;2.70;;;15.80;99.90;;;;;;5052113;28;20257;-56
2023/01/26 13:30:27;;;;;;;11.90;2.75;;;15.60;99.90;;;;;;5051154;28;20256;-57
2023/01/26 13:33:12;;;;;;;11.15;2.92;;;13.70;99.90;;;;;;5051226;28;20217;-56
2023/01/26 13:35:39;;;;;;;11.60;2.67;;;12.50;99.90;;;;;;5052117;28;20185;-56
2023/01/26 13:38:14;;;;;;;14.98;3.05;;;11.80;99.90;;;;;;5051518;28;20185;-56
2023/01/26 13:40:49;;;;;;;14.43;2.90;;;11.20;99.90;;;;;;5051635;28;20169;-56
2023/01/26 13:43:29;;;;;;;11.43;2.70;;;10.90;99.90;;;;;;5049469;28;20272;-56
2023/01/26 13:45:58;;;;;;;13.93;2.83;;;10.40;99.90;;;;;;5051196;28;20266;-56
2023/01/26 13:48:44;;;;;;;14.23;2.60;;;9.80;99.90;;;;;;5051131;28;20184;-56
2023/01/26 13:51:23;;;;;;;10.47;2.30;;;9.70;99.90;;;;;;5026125;28;20203;-56